sensor_id;sensor_type;location;lat;lon;timestamp;pressure;altitude;pressure_sealevel;temperature;humidity
63582;BME280;49727;51.078;17.066;2023-02-04T00:07:45;99586.47;;;3.52;78.68
63582;BME280;49727;51.078;17.066;2023-02-04T00:22:45;99617.06;;;3.14;77.95
63582;BME280;49727;51.078;17.066;2023-02-04T00:37:46;99664.53;;;2.93;77.10
63582;BME280;49727;51.078;17.066;2023-02-04T00:52:46;99682.56;;;2.66;76.76
63582;BME280;49727;51.078;17.066;2023-02-04T01:07:47;99708.59;;;2.39;77.50
63582;BME280;49727;51.078;17.066;2023-02-04T01:22:47;99747.16;;;2.17;78.10
63582;BME280;49727;51.078;17.066;2023-02-04T01:37:47;99799.19;;;2.02;78.16
63582;BME280;49727;51.078;17.066;2023-02-04T01:52:48;99928.44;;;1.62;77.85
63582;BME280;49727;51.078;17.066;2023-02-04T02:07:50;100011.59;;;1.03;77.05
63582;BME280;49727;51.078;17.066;2023-02-04T02:23:13;100127.63;;;0.70;77.08
63582;BME280;49727;51.078;17.066;2023-02-04T02:38:17;100240.47;;;0.42;76.35
63582;BME280;49727;51.078;17.066;2023-02-04T02:53:19;100321.16;;;0.24;76.30
63582;BME280;49727;51.078;17.066;2023-02-04T03:08:20;100402.91;;;0.16;76.10
63582;BME280;49727;51.078;17.066;2023-02-04T03:23:21;100492.53;;;0.07;75.94
63582;BME280;49727;51.078;17.066;2023-02-04T03:38:21;100576.44;;;-0.09;75.12
63582;BME280;49727;51.078;17.066;2023-02-04T03:53:21;100656.94;;;-0.27;74.89
63582;BME280;49727;51.078;17.066;2023-02-04T04:08:22;100718.69;;;-0.39;74.82
63582;BME280;49727;51.078;17.066;2023-02-04T04:23:22;100773.75;;;-0.40;74.49
63582;BME280;49727;51.078;17.066;2023-02-04T04:38:23;100836.69;;;-0.42;73.79
63582;BME280;49727;51.078;17.066;2023-02-04T04:53:23;100890.72;;;-0.41;73.85
63582;BME280;49727;51.078;17.066;2023-02-04T05:08:23;100946.19;;;-0.50;73.44
63582;BME280;49727;51.078;17.066;2023-02-04T05:23:24;101029.94;;;-0.50;73.03
63582;BME280;49727;51.078;17.066;2023-02-04T05:38:24;101063.13;;;-0.50;72.67
63582;BME280;49727;51.078;17.066;2023-02-04T05:53:25;101120.94;;;-0.55;72.73
63582;BME280;49727;51.078;17.066;2023-02-04T06:08:25;101169.84;;;-0.56;72.52
63582;BME280;49727;51.078;17.066;2023-02-04T06:23:25;101219.34;;;-0.51;72.30
63582;BME280;49727;51.078;17.066;2023-02-04T06:38:26;101266.38;;;-0.49;72.63
63582;BME280;49727;51.078;17.066;2023-02-04T06:53:26;101324.38;;;-0.40;72.31
63582;BME280;49727;51.078;17.066;2023-02-04T07:08:27;101384.56;;;-0.38;72.25
63582;BME280;49727;51.078;17.066;2023-02-04T07:23:27;101429.56;;;-0.30;71.89
63582;BME280;49727;51.078;17.066;2023-02-04T07:38:28;101453.91;;;-0.09;71.37
63582;BME280;49727;51.078;17.066;2023-02-04T07:53:28;101472.69;;;0.93;72.31
63582;BME280;49727;51.078;17.066;2023-02-04T08:08:29;101495.78;;;3.00;71.13
63582;BME280;49727;51.078;17.066;2023-02-04T08:23:29;101513.53;;;4.97;68.55
63582;BME280;49727;51.078;17.066;2023-02-04T08:38:29;101522.47;;;7.10;64.60
63582;BME280;49727;51.078;17.066;2023-02-04T08:53:30;101533.50;;;14.84;56.24
63582;BME280;49727;51.078;17.066;2023-02-04T09:08:30;101550.78;;;15.31;40.77
63582;BME280;49727;51.078;17.066;2023-02-04T09:23:31;101572.06;;;9.89;46.06
63582;BME280;49727;51.078;17.066;2023-02-04T09:38:31;101611.50;;;6.52;48.98
63582;BME280;49727;51.078;17.066;2023-02-04T09:53:33;101610.34;;;4.84;51.62
63582;BME280;49727;51.078;17.066;2023-02-04T10:08:35;101627.75;;;4.30;52.92
63582;BME280;49727;51.078;17.066;2023-02-04T10:23:35;101634.16;;;7.30;49.39
63582;BME280;49727;51.078;17.066;2023-02-04T10:38:36;101665.56;;;4.60;51.28
63582;BME280;49727;51.078;17.066;2023-02-04T10:53:36;101668.69;;;6.16;52.75
63582;BME280;49727;51.078;17.066;2023-02-04T11:08:57;101701.06;;;6.84;50.11
63582;BME280;49727;51.078;17.066;2023-02-04T11:39:15;101722.31;;;7.45;46.43
63582;BME280;49727;51.078;17.066;2023-02-04T11:54:17;101729.72;;;5.18;46.53
63582;BME280;49727;51.078;17.066;2023-02-04T12:09:25;101742.31;;;4.12;47.01
63582;BME280;49727;51.078;17.066;2023-02-04T12:24:25;101762.78;;;2.96;47.95
63582;BME280;49727;51.078;17.066;2023-02-04T12:39:26;101771.22;;;3.51;48.62
63582;BME280;49727;51.078;17.066;2023-02-04T12:54:27;101769.88;;;3.12;48.56
63582;BME280;49727;51.078;17.066;2023-02-04T13:09:28;101789.09;;;3.30;49.18
63582;BME280;49727;51.078;17.066;2023-02-04T13:24:28;101800.47;;;5.41;45.02
63582;BME280;49727;51.078;17.066;2023-02-04T13:39:28;101801.94;;;4.14;45.97
63582;BME280;49727;51.078;17.066;2023-02-04T13:54:29;101821.53;;;3.30;46.95
63582;BME280;49727;51.078;17.066;2023-02-04T14:09:29;101872.66;;;2.40;49.47
63582;BME280;49727;51.078;17.066;2023-02-04T14:24:30;101852.06;;;1.77;52.69
63582;BME280;49727;51.078;17.066;2023-02-04T14:39:31;101859.28;;;1.52;54.26
63582;BME280;49727;51.078;17.066;2023-02-04T14:54:31;101866.53;;;1.47;54.60
63582;BME280;49727;51.078;17.066;2023-02-04T15:09:32;101870.50;;;0.97;55.45
63582;BME280;49727;51.078;17.066;2023-02-04T15:24:32;101879.84;;;0.19;58.01
63582;BME280;49727;51.078;17.066;2023-02-04T15:39:33;101897.81;;;0.28;59.01
63582;BME280;49727;51.078;17.066;2023-02-04T15:54:33;101903.75;;;0.33;59.68
63582;BME280;49727;51.078;17.066;2023-02-04T16:09:35;101909.06;;;-0.14;60.99
63582;BME280;49727;51.078;17.066;2023-02-04T16:24:36;101919.97;;;-0.48;61.24
63582;BME280;49727;51.078;17.066;2023-02-04T16:39:37;101925.00;;;-0.68;61.62
63582;BME280;49727;51.078;17.066;2023-02-04T16:54:38;101942.88;;;-0.79;62.46
63582;BME280;49727;51.078;17.066;2023-02-04T17:09:38;101948.75;;;-0.72;62.92
63582;BME280;49727;51.078;17.066;2023-02-04T17:24:39;101948.84;;;-0.75;63.17
63582;BME280;49727;51.078;17.066;2023-02-04T17:39:42;101967.91;;;-0.72;63.55
63582;BME280;49727;51.078;17.066;2023-02-04T17:54:43;101969.63;;;-0.71;63.38
63582;BME280;49727;51.078;17.066;2023-02-04T18:09:43;101984.44;;;-0.70;63.16
63582;BME280;49727;51.078;17.066;2023-02-04T18:24:44;101995.50;;;-0.61;63.59
63582;BME280;49727;51.078;17.066;2023-02-04T18:39:47;102028.59;;;-0.60;62.87
63582;BME280;49727;51.078;17.066;2023-02-04T18:54:55;102036.56;;;-0.63;62.39
63582;BME280;49727;51.078;17.066;2023-02-04T19:09:57;102039.41;;;-0.71;62.44
63582;BME280;49727;51.078;17.066;2023-02-04T19:25:06;102066.00;;;-0.83;62.60
63582;BME280;49727;51.078;17.066;2023-02-04T19:40:31;102064.00;;;-0.75;62.18
63582;BME280;49727;51.078;17.066;2023-02-04T19:55:35;102077.84;;;-0.72;61.96
63582;BME280;49727;51.078;17.066;2023-02-04T20:10:41;102081.63;;;-0.80;62.13
63582;BME280;49727;51.078;17.066;2023-02-04T20:25:43;102092.81;;;-0.77;61.99
63582;BME280;49727;51.078;17.066;2023-02-04T20:40:44;102097.56;;;-0.88;61.18
63582;BME280;49727;51.078;17.066;2023-02-04T20:55:57;102122.97;;;-1.80;61.81
63582;BME280;49727;51.078;17.066;2023-02-04T21:11:03;102138.28;;;-2.32;63.10
63582;BME280;49727;51.078;17.066;2023-02-04T21:26:05;102142.75;;;-2.73;63.46
63582;BME280;49727;51.078;17.066;2023-02-04T21:41:05;102135.50;;;-2.98;64.09
63582;BME280;49727;51.078;17.066;2023-02-04T21:56:06;102161.81;;;-3.09;65.00
63582;BME280;49727;51.078;17.066;2023-02-04T22:11:08;102174.38;;;-3.26;65.81
63582;BME280;49727;51.078;17.066;2023-02-04T22:26:09;102175.56;;;-3.00;66.52
63582;BME280;49727;51.078;17.066;2023-02-04T22:41:09;102180.34;;;-2.82;66.37
63582;BME280;49727;51.078;17.066;2023-02-04T22:56:11;102175.22;;;-2.47;66.17
63582;BME280;49727;51.078;17.066;2023-02-04T23:11:11;102177.38;;;-2.30;66.01
63582;BME280;49727;51.078;17.066;2023-02-04T23:26:13;102162.91;;;-2.80;65.39
63582;BME280;49727;51.078;17.066;2023-02-04T23:41:13;102167.75;;;-3.02;66.25
63582;BME280;49727;51.078;17.066;2023-02-04T23:56:14;102161.38;;;-3.28;66.10
